Tiempo atmosférico en la estación meteorológica de Castell, Platja d'Aro, Girona (14 m.)

Fecha
DESCASC
Temp. máxima en grados centígrados (hora)
DESCASC
Temp. mínima en grados centígrados (hora)
DESCASC
Temp. media en grados centígrados
DESCASC
Racha de viento máxima en m/sg (hora)
DESCASC
Velocidad máxima media en intervalos de 10 minutos(hora)
DESCASC
Precipitaciones diarias en mm
DESCASC
Precipitaciones de 00:00 a 06:00 en mm
DESCASC
Precipitaciones de 06:00 a 12:00 en mm
DESCASC
Precipitaciones de 12:00 a 18:00 en mm
DESCASC
Precipitaciones de 18:00 a 24:00 en mm
DESCASC
23-11-2017 18.8 (13:20) 9.1 (23:50) 13.9 7.78 (12:50) 4.72 (12:50) 0 0 0 0 0
22-11-2017 18.3 (15:10) 4 (05:20) 11.1 11.11 (19:40) 4.17 (20:00) 0 0 0 0 0
21-11-2017 18.3 (12:30) 4.9 (06:50) 11.6 5.56 (07:00) 2.78 (08:00) 0 0 0 0 0
20-11-2017 18.4 (13:10) 3.9 (05:10) 11.1 6.39 (15:10) 3.89 (14:50) 0 0 0 0 0
19-11-2017 19.1 (14:40) 4.4 (00:00) 11.8 7.78 (15:10) 3.33 (15:50) 0 0 0 0 0
18-11-2017 18.3 (12:50) 4.7 (00:00) 11.5 5.56 (09:50) 3.06 (09:50) 0 0 0 0 0
17-11-2017 18.6 (13:10) 3.5 (00:00) 11.1 5.28 (11:00) 2.5 (08:10) 0 0 0 0 0
16-11-2017 14.9 (14:40) 1.3 (00:00) 8.1 5 (09:20) 2.78 (04:40) 0 0 0 0 0
15-11-2017 16.9 (14:10) 0.6 (00:00) 8.7 6.39 (13:20) 3.61 (13:30) 0 0 0 0 0
14-11-2017 14.6 (12:50) 4.6 (00:00) 9.6 16.39 (12:40) 7.5 (12:40) 0 0 0 0 0
13-11-2017 14.5 (14:40) 8.9 (00:00) 11.7 24.44 (02:40) 10.28 (13:10) 0 0 0 0 0
12-11-2017 18.8 (14:30) 6.4 (00:00) 12.6 5 (15:10) 2.5 (07:40) 0 0 0 0 0
11-11-2017 18.7 (13:00) 5.1 (00:00) 11.9 6.39 (06:20) 2.78 (13:40) 0 0 0 0 0
10-11-2017 18.2 (14:10) 2.5 (00:00) 10.4 12.5 (11:30) 6.11 (11:50) 0 0 0 0 0
09-11-2017 11.9 (13:30) 4.3 (00:00) 8.1 11.39 (18:20) 5 (09:30) 0 0 0 0 0
08-11-2017 15.1 (14:30) 3.2 (00:00) 9.2 8.89 (21:50) 3.89 (22:10) 0 0 0 0 0
07-11-2017 15.8 (14:00) 3.7 (00:00) 9.8 15 (03:30) 6.94 (03:00) 0 0 0 0 0
06-11-2017 16.1 (14:40) 3.6 (00:00) 9.9 15.83 (11:30) 8.61 (11:30) 0 0 0 0 0
05-11-2017 17.3 (14:40) 11.3 (00:00) 14.3 13.61 (21:10) 5.83 (20:00) 4.2 4.2 0 0 0
04-11-2017 19.4 (16:20) 13.9 (00:00) 16.6 10.28 (21:10) 5 (21:20) 64.8 0 19.8 28.4 16.6
03-11-2017 21.6 (15:10) 10.9 (00:00) 16.3 8.33 (17:50) 3.61 (12:40) 0 0 0 0 0
02-11-2017 23.1 (12:30) 10.3 (02:20) 16.7 9.72 (13:50) 5 (13:50) 0 0 0 0 0
01-11-2017 19.9 (12:50) 6.8 (00:00) 13.3 6.11 (15:00) 3.61 (15:00) 0 0 0 0 0
31-10-2017 19.2 (13:50) 8.7 (00:00) 14 8.33 (00:10) 3.89 (15:10) 0 0 0 0 0
30-10-2017 21.6 (13:30) 9.3 (00:00) 15.5 10.28 (18:40) 4.72 (20:00) 0 0 0 0 0
29-10-2017 21.1 (12:40) 8.3 (00:00) 14.7 6.39 (09:50) 3.61 (10:30) 0 0 0 0 0
28-10-2017 22.8 (12:40) 11.6 (00:00) 17.2 12.5 (03:50) 4.72 (02:50) 0 0 0 0 0
27-10-2017 23.3 (16:30) 12.2 (00:00) 17.7 13.61 (17:40) 7.5 (20:10) 0 0 0 0 0
26-10-2017 20.3 (13:30) 12.9 (00:00) 16.6 4.44 (15:10) 2.78 (15:30) 0 0 0 0 0
25-10-2017 22.6 (12:40) 11.1 (00:00) 16.9 5.28 (11:20) 3.06 (11:20) 0 0 0 0 0

Gráficas

Temp. máximas Temp. mínimas Temp. medias Precipitaciones Rachas de viento máximas Velocidades máximas media en intervalos de 10 minutos

Datos horarios

Fecha y hora oficial Temperatura (ºC) Velocidad del viento (km/h) Dirección del viento Racha (km/h) Dirección de racha Precipitación (mm) Presión (hPa) Tendencia (hPa) Humedad (%)
2017-11-23 23:00:00 9.7 7 Oeste 11 Sudoeste 0 -- -- 95
2017-11-23 22:00:00 10.2 4 Oeste 12 Oeste 0 -- -- 94
2017-11-23 21:00:00 11 5 Oeste 11 Oeste 0 -- -- 94
2017-11-23 20:00:00 11.3 5 Oeste 11 Oeste 0 -- -- 92
2017-11-23 19:00:00 12.5 2 Sur 6 Noroeste 0 -- -- 90
2017-11-23 18:00:00 14.6 2 Sudoeste 12 Sudeste 0 -- -- 82
2017-11-23 17:00:00 17 6 Sudeste 19 Sudoeste 0 -- -- 80
2017-11-23 16:00:00 17.8 6 Sur 23 Sudoeste 0 -- -- 77
2017-11-23 15:00:00 18.5 9 Sur 25 Sudoeste 0 -- -- 72
2017-11-23 14:00:00 18.4 6 Noroeste 27 Sudoeste 0 -- -- 73
2017-11-23 13:00:00 18.6 14 Sur 28 Sur 0 -- -- 70
2017-11-23 12:00:00 18.2 9 Sur 24 Sur 0 -- -- 72
2017-11-23 11:00:00 17.2 6 Sur 16 Sur 0 -- -- 74
2017-11-23 10:00:00 14.3 2 Oeste 7 Oeste 0 -- -- 89
2017-11-23 09:00:00 12.1 2 Sudoeste 6 Nordeste 0 -- -- 96
2017-11-23 08:00:00 11.9 4 Sudoeste 15 Sudoeste 0 -- -- 94
2017-11-23 07:00:00 11.3 4 Oeste 13 Sudoeste 0 -- -- 95
2017-11-23 06:00:00 10.7 5 Sur 11 Sudoeste 0 -- -- 95
2017-11-23 05:00:00 11.2 3 Oeste 12 Sudoeste 0 -- -- 93
2017-11-23 04:00:00 11.9 2 Oeste 10 Oeste 0 -- -- 90
2017-11-23 03:00:00 13 4 Sudoeste 12 Sudoeste 0 -- -- 85
2017-11-23 02:00:00 14.4 5 Sudoeste 13 Sudoeste 0 -- -- 84
2017-11-23 01:00:00 14.9 6 Sudoeste 18 Sudoeste 0 -- -- 83
2017-11-23 00:00:00 14 4 Oeste 14 Sudoeste 0 -- -- 86
2017-11-22 23:00:00 14.9 5 Oeste 20 Sudoeste 0 -- -- 84
2017-11-22 22:00:00 15.5 7 Oeste 30 Sudoeste 0 -- -- 81
2017-11-22 21:00:00 16.1 12 Sudoeste 37 Sur 0 -- -- 78
2017-11-22 20:00:00 16.4 15 Sur 40 Sudoeste 0 -- -- 76
2017-11-22 19:00:00 16 10 Sudoeste 30 Sudoeste 0 -- -- 83
2017-11-22 18:00:00 15.7 4 Sudoeste 21 Sur 0 -- -- 84
2017-11-22 17:00:00 16.5 7 Sudoeste 18 Sur 0 -- -- 80
2017-11-22 16:00:00 17.3 8 Sur 27 Sudoeste 0 -- -- 76
2017-11-22 15:00:00 18.2 7 Sur 26 Sudoeste 0 -- -- 72
2017-11-22 14:00:00 18.2 7 Sur 28 Sur 0 -- -- 71
2017-11-22 13:00:00 18.1 11 Sur 30 Sudoeste 0 -- -- 71
2017-11-22 12:00:00 18.1 11 Sur 30 Sudoeste 0 -- -- 67
2017-11-22 11:00:00 17.6 12 Sudoeste 23 Sur 0 -- -- 71
2017-11-22 10:00:00 14.4 7 Sudoeste 24 Sudoeste 0 -- -- 86
2017-11-22 09:00:00 6.4 5 Oeste 11 Sudoeste 0 -- -- 97
2017-11-22 08:00:00 4.5 6 Oeste 13 Oeste 0 -- -- 94
2017-11-22 07:00:00 4.9 8 Oeste 16 Oeste 0 -- -- 91
2017-11-22 06:00:00 4.8 9 Oeste 16 Oeste 0 -- -- 92
2017-11-22 05:00:00 4.6 8 Oeste 17 Sudoeste 0 -- -- 90
2017-11-22 04:00:00 5.3 8 Oeste 15 Oeste 0 -- -- 90
2017-11-22 03:00:00 5.3 7 Oeste 14 Oeste 0 -- -- 92
2017-11-22 02:00:00 5.5 7 Oeste 15 Sudoeste 0 -- -- 91
2017-11-22 01:00:00 5.4 7 Oeste 15 Oeste 0 -- -- 91
2017-11-22 00:00:00 5.7 7 Oeste 14 Oeste 0 -- -- 91
2017-11-21 23:00:00 6.5 6 Oeste 14 Sudoeste 0 -- -- 88
2017-11-21 22:00:00 7.1 7 Oeste 13 Oeste 0 -- -- 85
2017-11-21 21:00:00 7.5 6 Oeste 14 Oeste 0 -- -- 88
2017-11-21 20:00:00 8.3 7 Oeste 12 Oeste 0 -- -- 86
2017-11-21 19:00:00 9.8 6 Oeste 8 Oeste 0 -- -- 85
2017-11-21 18:00:00 12.2 3 Sur 5 Sur 0 -- -- 82
2017-11-21 17:00:00 14.7 3 Sur 6 Sudeste 0 -- -- 75
2017-11-21 16:00:00 17 5 Sudeste 12 Sudeste 0 -- -- 66
2017-11-21 15:00:00 18 6 Sudeste 12 Sudeste 0 -- -- 61
2017-11-21 14:00:00 18.1 6 Sudeste 11 Este 0 -- -- 56
2017-11-21 13:00:00 18.2 6 Sudeste 11 Este 0 -- -- 54
2017-11-21 12:00:00 18 4 Este 8 Este 0 -- -- 47
2017-11-21 11:00:00 14.8 3 Sudoeste 14 Oeste 0 -- -- 59
2017-11-21 10:00:00 10.5 7 Oeste 17 Sudoeste 0 -- -- 73
2017-11-21 09:00:00 6.3 9 Oeste 17 Sudoeste 0 -- -- 84
2017-11-21 08:00:00 5.2 10 Oeste 19 Oeste 0 -- -- 87
2017-11-21 07:00:00 5 8 Oeste 20 Sudoeste 0 -- -- 89
2017-11-21 06:00:00 5.3 8 Oeste 18 Oeste 0 -- -- 88
2017-11-21 05:00:00 5.5 9 Oeste 17 Oeste 0 -- -- 89
2017-11-21 04:00:00 5.6 8 Oeste 17 Oeste 0 -- -- 88
2017-11-21 03:00:00 6.4 8 Oeste 15 Oeste 0 -- -- 86
2017-11-21 02:00:00 6.7 7 Sudoeste 17 Sudoeste 0 -- -- 86
2017-11-21 01:00:00 6.7 8 Oeste 17 Sudoeste 0 -- -- 89
2017-11-21 00:00:00 6.7 9 Sudoeste 16 Oeste 0 -- -- 89
2017-11-20 23:00:00 7.5 8 Sudoeste 16 Oeste 0 -- -- 87
2017-11-20 22:00:00 8.4 8 Sudoeste 15 Oeste 0 -- -- 85
2017-11-20 21:00:00 8.7 7 Oeste 15 Sudoeste 0 -- -- 83
2017-11-20 20:00:00 9.5 6 Oeste 13 Oeste 0 -- -- 82
2017-11-20 19:00:00 10.7 6 Oeste 10 Oeste 0 -- -- 84
2017-11-20 18:00:00 13 3 Oeste 8 Sudoeste 0 -- -- 75
2017-11-20 17:00:00 15.9 0 Calma 15 Sur 0 -- -- 68
2017-11-20 16:00:00 17 11 Sur 23 Sur 0 -- -- 66
2017-11-20 15:00:00 18.1 13 Sur 22 Sur 0 -- -- 60
2017-11-20 14:00:00 18.3 13 Sur 21 Sur 0 -- -- 59
2017-11-20 13:00:00 18.2 7 Sudoeste 15 Sudoeste 0 -- -- 58
2017-11-20 12:00:00 16.1 8 Oeste 17 Oeste 0 -- -- 58
2017-11-20 11:00:00 13.1 8 Oeste 23 Oeste 0 -- -- 62
2017-11-20 10:00:00 9.4 10 Oeste 19 Oeste 0 -- -- 75
2017-11-20 09:00:00 5.5 9 Sudoeste 18 Oeste 0 -- -- 88
2017-11-20 08:00:00 4.3 9 Oeste 19 Oeste 0 -- -- 90
2017-11-20 07:00:00 4.1 9 Oeste 14 Oeste 0 -- -- 91
2017-11-20 06:00:00 3.9 6 Sudoeste 17 Sudoeste 0 -- -- 91
2017-11-20 05:00:00 4.1 9 Oeste 19 Oeste 0 -- -- 89
2017-11-20 04:00:00 5 10 Oeste 18 Oeste 0 -- -- 87
2017-11-20 03:00:00 5.2 8 Oeste 17 Oeste 0 -- -- 88
2017-11-20 02:00:00 5.6 8 Oeste 14 Oeste 0 -- -- 87
2017-11-20 01:00:00 5.6 7 Oeste 16 Sudoeste 0 -- -- 85
2017-11-20 00:00:00 6.3 8 Oeste 19 Oeste 0 -- -- 84
2017-11-19 23:00:00 6.2 7 Oeste 15 Oeste 0 -- -- 80
2017-11-19 22:00:00 6.5 7 Oeste 13 Oeste 0 -- -- 76
2017-11-19 21:00:00 7.2 8 Oeste 13 Oeste 0 -- -- 69
2017-11-19 20:00:00 8.1 7 Oeste 14 Noroeste 0 -- -- 66
2017-11-19 19:00:00 9.3 6 Oeste 11 Oeste 0 -- -- 64
2017-11-19 18:00:00 11.6 5 Oeste 8 Oeste 0 -- -- 64
2017-11-19 17:00:00 14.9 4 Sur 12 Sudeste 0 -- -- 52
2017-11-19 16:00:00 17.8 8 Este 28 Noroeste 0 -- -- 36
2017-11-19 15:00:00 18.8 9 Norte 17 Noroeste 0 -- -- 35
2017-11-19 14:00:00 18.8 4 Sur 10 Sudeste 0 -- -- 22
2017-11-19 13:00:00 17.8 4 Este 10 Oeste 0 -- -- 25
2017-11-19 12:00:00 15.1 6 Oeste 18 Oeste 0 -- -- 67
2017-11-19 11:00:00 12.8 6 Oeste 21 Oeste 0 -- -- 75
2017-11-19 10:00:00 8.9 7 Oeste 17 Oeste 0 -- -- 89
2017-11-19 09:00:00 5.1 8 Oeste 17 Oeste 0 -- -- 96
2017-11-19 08:00:00 4.4 9 Oeste 17 Oeste 0 -- -- 96
2017-11-19 07:00:00 4.9 7 Oeste 15 Oeste 0 -- -- 97
2017-11-19 06:00:00 4.7 6 Oeste 14 Sudoeste 0 -- -- 96
2017-11-19 05:00:00 5.1 7 Oeste 15 Oeste 0 -- -- 96
2017-11-19 04:00:00 5.6 8 Oeste 15 Oeste 0 -- -- 96
2017-11-19 03:00:00 6.3 6 Oeste 13 Sudoeste 0 -- -- 96
2017-11-19 02:00:00 6.5 7 Oeste 14 Oeste 0 -- -- 95
2017-11-19 01:00:00 7 7 Oeste 14 Sudoeste 0 -- -- 95
2017-11-19 00:00:00 7.3 6 Oeste 14 Sudoeste 0 -- -- 95
2017-11-18 23:00:00 7.4 7 Oeste 14 Oeste 0 -- -- 95
2017-11-18 22:00:00 7.5 7 Oeste 11 Oeste 0 -- -- 91
2017-11-18 21:00:00 8.2 4 Oeste 13 Oeste 0 -- -- 91
2017-11-18 20:00:00 9 5 Oeste 11 Oeste 0 -- -- 88
2017-11-18 19:00:00 9.9 5 Oeste 8 Oeste 0 -- -- 85
2017-11-18 18:00:00 12.4 4 Oeste 6 Oeste 0 -- -- 76
2017-11-18 17:00:00 15.3 3 Sudeste 12 Este 0 -- -- 70
2017-11-18 16:00:00 16.5 7 Este 16 Este 0 -- -- 65
2017-11-18 15:00:00 17.2 8 Este 15 Este 0 -- -- 63
2017-11-18 14:00:00 17.4 8 Este 15 Sudeste 0 -- -- 61
2017-11-18 13:00:00 18.2 7 Este 12 Sudeste 0 -- -- 47
2017-11-18 12:00:00 16.4 3 Noroeste 11 Oeste 0 -- -- 51
2017-11-18 11:00:00 13 5 Oeste 18 Oeste 0 -- -- 67
2017-11-18 10:00:00 9.7 9 Oeste 20 Oeste 0 -- -- 73
2017-11-18 09:00:00 6.7 8 Oeste 17 Oeste 0 -- -- 83
2017-11-18 08:00:00 4.9 8 Oeste 19 Oeste 0 -- -- 88
2017-11-18 07:00:00 4.7 8 Oeste 17 Oeste 0 -- -- 89
2017-11-18 06:00:00 4.9 8 Oeste 17 Oeste 0 -- -- 90
2017-11-18 05:00:00 5.3 9 Oeste 17 Oeste 0 -- -- 87
2017-11-18 04:00:00 5.2 7 Oeste 15 Sudoeste 0 -- -- 88
2017-11-18 03:00:00 6 9 Oeste 16 Oeste 0 -- -- 88
2017-11-18 02:00:00 6 6 Oeste 14 Noroeste 0 -- -- 88
2017-11-18 01:00:00 6.6 6 Oeste 14 Sudoeste 0 -- -- 89
2017-11-18 00:00:00 6.7 7 Oeste 15 Oeste 0 -- -- 89
2017-11-17 23:00:00 7.5 8 Sudoeste 14 Oeste 0 -- -- 90
2017-11-17 22:00:00 7.7 7 Oeste 14 Oeste 0 -- -- 91
2017-11-17 21:00:00 7.6 6 Oeste 13 Oeste 0 -- -- 89
2017-11-17 20:00:00 8.5 7 Oeste 11 Oeste 0 -- -- 87
2017-11-17 19:00:00 9.7 4 Oeste 6 Oeste 0 -- -- 80
2017-11-17 18:00:00 11.7 0 Calma 5 Sur 0 -- -- 74
2017-11-17 17:00:00 14.4 3 Sur 6 Sur 0 -- -- 66
2017-11-17 16:00:00 16.6 5 Este 13 Este 0 -- -- 55
2017-11-17 15:00:00 17.2 8 Este 13 Este 0 -- -- 54
2017-11-17 14:00:00 17.6 7 Este 17 Este 0 -- -- 46
2017-11-17 13:00:00 18.5 8 Sur 14 Oeste 0 -- -- 42
2017-11-17 12:00:00 16.4 8 Oeste 17 Oeste 0 -- -- 42
2017-11-17 11:00:00 13.7 8 Oeste 19 Oeste 0 -- -- 54
2017-11-17 10:00:00 9.8 6 Oeste 14 Oeste 0 -- -- 71
2017-11-17 09:00:00 5.4 8 Oeste 17 Oeste 0 -- -- 86
2017-11-17 08:00:00 3.7 8 Oeste 16 Oeste 0 -- -- 90
2017-11-17 07:00:00 3.7 8 Oeste 14 Oeste 0 -- -- 92
2017-11-17 06:00:00 3.6 7 Oeste 15 Oeste 0 -- -- 92
2017-11-17 05:00:00 4 8 Oeste 15 Sudoeste 0 -- -- 91
2017-11-17 04:00:00 4.4 7 Sudoeste 15 Oeste 0 -- -- 92
2017-11-17 03:00:00 4.6 8 Sudoeste 16 Oeste 0 -- -- 92
2017-11-17 02:00:00 4.9 7 Oeste 14 Oeste 0 -- -- 94
2017-11-17 01:00:00 5.5 8 Oeste 15 Oeste 0 -- -- 94
2017-11-17 00:00:00 6.1 7 Oeste 14 Sudoeste 0 -- -- 95
2017-11-16 23:00:00 6.2 6 Oeste 15 Oeste 0 -- -- 94
2017-11-16 22:00:00 6.9 6 Oeste 12 Oeste 0 -- -- 94
2017-11-16 21:00:00 7 6 Oeste 11 Oeste 0 -- -- 92
2017-11-16 20:00:00 7.8 6 Oeste 9 Oeste 0 -- -- 90
2017-11-16 19:00:00 8.8 4 Oeste 5 Oeste 0 -- -- 86
2017-11-16 18:00:00 10.8 3 Sur 5 Sur 0 -- -- 82
2017-11-16 17:00:00 13.6 2 Este 10 Sur 0 -- -- 72
2017-11-16 16:00:00 14.4 5 Sudeste 12 Sudeste 0 -- -- 66
2017-11-16 15:00:00 14.8 5 Este 11 Sudeste 0 -- -- 62
2017-11-16 14:00:00 14.5 6 Este 14 Nordeste 0 -- -- 64
2017-11-16 13:00:00 14.4 8 Este 16 Este 0 -- -- 61
2017-11-16 12:00:00 14.2 4 Este 11 Oeste 0 -- -- 59
2017-11-16 11:00:00 10.9 8 Oeste 13 Oeste 0 -- -- 62
2017-11-16 10:00:00 7.7 7 Oeste 18 Oeste 0 -- -- 69
2017-11-16 09:00:00 3.4 8 Oeste 16 Oeste 0 -- -- 85
2017-11-16 08:00:00 1.4 7 Oeste 15 Oeste 0 -- -- 87
2017-11-16 07:00:00 1.7 8 Oeste 16 Oeste 0 -- -- 87
2017-11-16 06:00:00 1.9 8 Oeste 15 Oeste 0 -- -- 87
2017-11-16 05:00:00 2 8 Oeste 17 Oeste 0 -- -- 86
2017-11-16 04:00:00 2.5 9 Oeste 17 Oeste 0 -- -- 85
2017-11-16 03:00:00 3.2 7 Oeste 15 Oeste 0 -- -- 83
2017-11-16 02:00:00 3.6 7 Oeste 16 Sudoeste 0 -- -- 83
2017-11-16 01:00:00 4.1 8 Oeste 17 Oeste 0 -- -- 82
2017-11-16 00:00:00 4.2 8 Oeste 16 Oeste 0 -- -- 82
2017-11-15 23:00:00 4.8 7 Oeste 14 Oeste 0 -- -- 82
2017-11-15 22:00:00 5.5 7 Oeste 15 Oeste 0 -- -- 79
2017-11-15 21:00:00 5.8 6 Oeste 14 Sudoeste 0 -- -- 80
2017-11-15 20:00:00 6.6 5 Oeste 14 Oeste 0 -- -- 78
2017-11-15 19:00:00 8 5 Oeste 10 Oeste 0 -- -- 75
2017-11-15 18:00:00 10.2 0 Calma 6 Sur 0 -- -- 71
2017-11-15 17:00:00 13.6 2 Sudeste 13 Sur 0 -- -- 59
2017-11-15 16:00:00 15.5 9 Sur 22 Sur 0.2 -- -- 51
2017-11-15 15:00:00 16.8 12 Sur 21 Sur 0 -- -- 33
2017-11-15 14:00:00 16.8 11 Sudoeste 23 Sur 0 -- -- 42
2017-11-15 13:00:00 16.4 9 Sur 16 Sudeste 0 -- -- 41
2017-11-15 12:00:00 14.2 5 Oeste 16 Oeste 0 -- -- 42
2017-11-15 11:00:00 11.2 9 Oeste 23 Oeste 0 -- -- 46
2017-11-15 10:00:00 8.1 8 Oeste 18 Oeste 0 -- -- 56
2017-11-15 09:00:00 3.1 9 Oeste 19 Oeste 0 -- -- 71
2017-11-15 08:00:00 0.7 8 Oeste 17 Oeste 0 -- -- 79
2017-11-15 07:00:00 0.6 8 Oeste 17 Oeste 0 -- -- 80
2017-11-15 06:00:00 0.8 8 Oeste 15 Oeste 0 -- -- 79
2017-11-15 05:00:00 0.9 8 Oeste 18 Oeste 0 -- -- 79
2017-11-15 04:00:00 1.2 9 Oeste 19 Oeste 0 -- -- 78
2017-11-15 03:00:00 1.9 9 Oeste 18 Oeste 0 -- -- 75
2017-11-15 02:00:00 2.4 6 Sudoeste 14 Oeste 0 -- -- 75
2017-11-15 01:00:00 3.2 9 Oeste 15 Oeste 0 -- -- 73
2017-11-15 00:00:00 4.6 7 Oeste 18 Oeste 0 -- -- 69
2017-11-14 23:00:00 6.1 9 Oeste 17 Oeste 0 -- -- 63
2017-11-14 22:00:00 9.3 8 Oeste 30 Norte 0 -- -- 52
2017-11-14 21:00:00 10.2 17 Norte 37 Norte 0 -- -- 50
2017-11-14 20:00:00 10.7 16 Norte 42 Norte 0 -- -- 46
2017-11-14 19:00:00 11.5 14 Norte 41 Nordeste 0 -- -- 37
2017-11-14 18:00:00 12 15 Norte 41 Noroeste 0 -- -- 35
2017-11-14 17:00:00 13.1 18 Norte 37 Norte 0 -- -- 32
2017-11-14 16:00:00 13.7 13 Norte 45 Norte 0 -- -- 32
2017-11-14 15:00:00 14.2 20 Norte 51 Norte 0 -- -- 29
2017-11-14 14:00:00 14.6 17 Nordeste 51 Nordeste 0 -- -- 27
2017-11-14 13:00:00 14.6 19 Nordeste 59 Norte 0 -- -- 26
2017-11-14 12:00:00 14.1 25 Norte 59 Noroeste 0 -- -- 27
2017-11-14 11:00:00 13.7 19 Norte 46 Noroeste 0 -- -- 28
2017-11-14 10:00:00 12.8 18 Norte 48 Noroeste 0 -- -- 30
2017-11-14 09:00:00 11.7 19 Norte 40 Norte 0 -- -- 31
2017-11-14 08:00:00 11.1 19 Noroeste 42 Noroeste 0 -- -- 32
2017-11-14 07:00:00 10.9 18 Noroeste 48 Noroeste 0 -- -- 33
2017-11-14 06:00:00 10.8 19 Noroeste 42 Noroeste 0 -- -- 33
2017-11-14 05:00:00 10.4 13 Norte 35 Norte 0 -- -- 35
2017-11-14 04:00:00 10.8 10 Norte 42 Noroeste 0 -- -- 33
2017-11-14 03:00:00 10.4 17 Noroeste 44 Norte 0 -- -- 36
2017-11-14 02:00:00 10.3 17 Noroeste 45 Noroeste 0 -- -- 37
2017-11-14 01:00:00 11.2 16 Norte 54 Norte 0 -- -- 32
2017-11-14 00:00:00 11.8 20 Norte 63 Noroeste 0 -- -- 27
2017-11-13 23:00:00 11.9 15 Noroeste 63 Noroeste 0 -- -- 27
2017-11-13 22:00:00 11.8 23 Noroeste 59 Noroeste 0 -- -- 29
2017-11-13 21:00:00 12.1 33 Noroeste 70 Noroeste 0 -- -- 29
2017-11-13 20:00:00 11.5 23 Noroeste 57 Norte 0 -- -- 32
2017-11-13 19:00:00 11.6 31 Noroeste 65 Noroeste 0 -- -- 35
2017-11-13 18:00:00 11.8 25 Noroeste 54 Noroeste 0 -- -- 32
2017-11-13 17:00:00 12.3 23 Norte 59 Noroeste 0 -- -- 30
2017-11-13 16:00:00 13.4 24 Norte 60 Norte 0 -- -- 28
2017-11-13 15:00:00 14.5 27 Noroeste 63 Norte 0 -- -- 24
2017-11-13 14:00:00 14 30 Noroeste 75 Oeste 0 -- -- 29
2017-11-13 13:00:00 13.6 28 Norte 66 Noroeste 0 -- -- 29
2017-11-13 12:00:00 13.5 23 Norte 57 Norte 0 -- -- 29
2017-11-13 11:00:00 12.2 18 Noroeste 53 Noroeste 0 -- -- 34
2017-11-13 10:00:00 11.5 24 Norte 46 Noroeste 0 -- -- 34
2017-11-13 09:00:00 11.2 13 Noroeste 30 Norte 0 -- -- 33
2017-11-13 08:00:00 9.6 15 Norte 39 Norte 0 -- -- 42
2017-11-13 07:00:00 10.2 15 Norte 44 Norte 0 -- -- 43
2017-11-13 06:00:00 10.3 16 Norte 58 Noroeste 0 -- -- 45
2017-11-13 05:00:00 10.5 27 Norte 66 Norte 0 -- -- 47
2017-11-13 04:00:00 10.3 28 Norte 68 Norte 0 -- -- 51
2017-11-13 03:00:00 10.7 34 Norte 88 Norte 0 -- -- 50
2017-11-13 02:00:00 10.8 27 Norte 58 Nordeste 0 -- -- 52
2017-11-13 01:00:00 12.3 18 Norte 41 Norte 0 -- -- 75
2017-11-13 00:00:00 9.2 5 Oeste 12 Oeste 0 -- -- 91
2017-11-12 23:00:00 9.7 5 Oeste 9 Noroeste 0 -- -- 91
2017-11-12 22:00:00 9.6 4 Oeste 13 Oeste 0 -- -- 92
2017-11-12 21:00:00 10.1 7 Oeste 12 Oeste 0 -- -- 91
2017-11-12 20:00:00 11.1 6 Oeste 10 Oeste 0 -- -- 92
2017-11-12 19:00:00 12.3 5 Oeste 7 Oeste 0 -- -- 88
2017-11-12 18:00:00 14.4 3 Oeste 11 Sudoeste 0 -- -- 83
2017-11-12 17:00:00 16.2 4 Sur 11 Este 0 -- -- 78
2017-11-12 16:00:00 17.4 4 Sudeste 18 Sudeste 0 -- -- 74
2017-11-12 15:00:00 18.8 6 Sur 13 Sur 0 -- -- 54
2017-11-12 14:00:00 18.3 6 Sudeste 12 Este 0 -- -- 56
2017-11-12 13:00:00 18 3 Norte 14 Este 0 -- -- 55
2017-11-12 12:00:00 17.6 5 Nordeste 10 Este 0 -- -- 57
2017-11-12 11:00:00 15.6 4 Oeste 14 Oeste 0 -- -- 67
2017-11-12 10:00:00 12.3 5 Oeste 12 Oeste 0 -- -- 76
2017-11-12 09:00:00 8 7 Oeste 16 Oeste 0 -- -- 88
2017-11-12 08:00:00 6.8 9 Oeste 16 Oeste 0 -- -- 91
2017-11-12 07:00:00 6.5 8 Oeste 17 Sudoeste 0 -- -- 90
2017-11-12 06:00:00 6.4 6 Oeste 15 Oeste 0 -- -- 90
2017-11-12 05:00:00 6.6 8 Oeste 17 Oeste 0 -- -- 90
2017-11-12 04:00:00 6.8 7 Oeste 16 Oeste 0 -- -- 89
2017-11-12 03:00:00 7.2 7 Oeste 14 Oeste 0 -- -- 88
2017-11-12 02:00:00 7.5 6 Oeste 15 Oeste 0 -- -- 87
2017-11-12 01:00:00 8 6 Oeste 14 Oeste 0 -- -- 88
2017-11-12 00:00:00 8.3 8 Oeste 15 Oeste 0 -- -- 89
2017-11-11 23:00:00 8.6 6 Oeste 13 Oeste 0 -- -- 90
2017-11-11 22:00:00 8.8 6 Oeste 15 Sudoeste 0 -- -- 88
2017-11-11 21:00:00 9.4 6 Oeste 13 Oeste 0 -- -- 86
2017-11-11 20:00:00 10.1 5 Oeste 12 Oeste 0 -- -- 84
2017-11-11 19:00:00 11.4 5 Oeste 11 Oeste 0 -- -- 81
2017-11-11 18:00:00 13.3 3 Oeste 6 Oeste 0 -- -- 75
2017-11-11 17:00:00 15.5 3 Sudoeste 11 Oeste 0 -- -- 67
2017-11-11 16:00:00 16.2 4 Oeste 10 Oeste 0 -- -- 66
2017-11-11 15:00:00 16.6 6 Oeste 13 Oeste 0 -- -- 62
2017-11-11 14:00:00 17.4 8 Sudoeste 19 Sur 0 -- -- 61
2017-11-11 13:00:00 18.7 7 Sur 15 Sudoeste 0 -- -- 56
2017-11-11 12:00:00 17.6 5 Sudoeste 15 Oeste 0 -- -- 54
2017-11-11 11:00:00 15.1 8 Oeste 16 Oeste 0 -- -- 57
2017-11-11 10:00:00 11.5 9 Oeste 19 Oeste 0 -- -- 64
2017-11-11 09:00:00 7.1 7 Oeste 15 Sudoeste 0 -- -- 82
2017-11-11 08:00:00 5.1 6 Oeste 17 Oeste 0 -- -- 85
2017-11-11 07:00:00 5.5 9 Oeste 23 Oeste 0 -- -- 84
2017-11-11 06:00:00 5.6 8 Oeste 21 Oeste 0 -- -- 83
2017-11-11 05:00:00 6.2 7 Oeste 18 Oeste 0 -- -- 82
2017-11-11 04:00:00 6.1 7 Oeste 16 Oeste 0 -- -- 83
2017-11-11 03:00:00 5.9 6 Oeste 15 Oeste 0 -- -- 83
2017-11-11 02:00:00 6.5 8 Oeste 17 Sudoeste 0 -- -- 80
2017-11-11 01:00:00 7.1 7 Oeste 14 Sudoeste 0 -- -- 78
2017-11-11 00:00:00 7.6 7 Sudoeste 15 Sudoeste 0 -- -- 76
2017-11-10 23:00:00 7.6 7 Oeste 13 Oeste 0 -- -- 76
2017-11-10 22:00:00 7.8 6 Sudoeste 14 Sudoeste 0 -- -- 76
2017-11-10 21:00:00 7.9 5 Oeste 12 Oeste 0 -- -- 76
2017-11-10 20:00:00 9.1 6 Oeste 12 Oeste 0 -- -- 72
2017-11-10 19:00:00 10.8 5 Oeste 10 Oeste 0 -- -- 66
2017-11-10 18:00:00 13.2 5 Oeste 10 Oeste 0 -- -- 59
2017-11-10 17:00:00 15.9 5 Noroeste 21 Noroeste 0 -- -- 45
2017-11-10 16:00:00 17.1 10 Norte 28 Noroeste 0 -- -- 41
2017-11-10 15:00:00 18 8 Noroeste 43 Norte 0 -- -- 39
2017-11-10 14:00:00 18.1 15 Norte 38 Noroeste 0 -- -- 37
2017-11-10 13:00:00 17.1 20 Norte 40 Norte 0 -- -- 36
2017-11-10 12:00:00 16 22 Norte 45 Norte 0 -- -- 37
2017-11-10 11:00:00 13.6 18 Norte 42 Noroeste 0 -- -- 45
2017-11-10 10:00:00 11.3 11 Noroeste 33 Noroeste 0 -- -- 56
2017-11-10 09:00:00 8.6 9 Noroeste 16 Noroeste 0 -- -- 66
2017-11-10 08:00:00 3 9 Oeste 18 Noroeste 0 -- -- 89
2017-11-10 07:00:00 2.6 7 Oeste 21 Sudoeste 0 -- -- 90
2017-11-10 06:00:00 3.2 7 Oeste 18 Oeste 0 -- -- 87
2017-11-10 05:00:00 3.3 6 Oeste 14 Sudoeste 0 -- -- 88
2017-11-10 04:00:00 4 6 Oeste 14 Oeste 0 -- -- 86
2017-11-10 03:00:00 5.1 6 Sudoeste 15 Oeste 0 -- -- 81
2017-11-10 02:00:00 7.2 2 Oeste 19 Nordeste 0 -- -- 71
2017-11-10 01:00:00 9.8 9 Norte 23 Norte 0 -- -- 60
2017-11-10 00:00:00 9.9 12 Norte 26 Noroeste 0 -- -- 60
2017-11-09 23:00:00 10.5 15 Norte 34 Norte 0 -- -- 58
2017-11-09 22:00:00 10 14 Norte 32 Norte 0 -- -- 60
2017-11-09 21:00:00 9.7 14 Norte 29 Norte 0 -- -- 62
2017-11-09 20:00:00 9.8 14 Noroeste 28 Noroeste 0 -- -- 63
2017-11-09 19:00:00 10.2 14 Noroeste 41 Norte 0 -- -- 62
2017-11-09 18:00:00 10.6 14 Norte 35 Norte 0 -- -- 61
2017-11-09 17:00:00 10.7 8 Norte 28 Norte 0 -- -- 61
2017-11-09 16:00:00 11.1 8 Noroeste 22 Norte 0 -- -- 59
2017-11-09 15:00:00 11.4 10 Norte 27 Norte 0 -- -- 57
2017-11-09 14:00:00 11.7 15 Norte 33 Noroeste 0 -- -- 54
2017-11-09 13:00:00 11.5 13 Norte 35 Norte 0 -- -- 54
2017-11-09 12:00:00 11.6 13 Norte 33 Noroeste 0 -- -- 52
2017-11-09 11:00:00 11 11 Norte 36 Norte 0 -- -- 57
2017-11-09 10:00:00 10.8 17 Norte 35 Noroeste 0 -- -- 57
2017-11-09 09:00:00 9.8 17 Norte 35 Norte 0 -- -- 61
2017-11-09 08:00:00 9.1 14 Norte 28 Noroeste 0 -- -- 60
2017-11-09 07:00:00 9.1 14 Norte 30 Nordeste 0 -- -- 58
2017-11-09 06:00:00 4.6 5 Sudoeste 13 Oeste 0 -- -- 83
2017-11-09 05:00:00 4.4 5 Oeste 13 Sudoeste 0 -- -- 82
2017-11-09 04:00:00 5.4 5 Sudoeste 9 Oeste 0 -- -- 78
2017-11-09 03:00:00 7 7 Oeste 17 Oeste 0 -- -- 72
2017-11-09 02:00:00 8.3 8 Oeste 17 Sudoeste 0 -- -- 67
2017-11-09 01:00:00 10 7 Oeste 31 Noroeste 0 -- -- 57
2017-11-09 00:00:00 10.8 11 Norte 30 Noroeste 0 -- -- 50
2017-11-08 23:00:00 10.8 12 Noroeste 30 Norte 0 -- -- 53
2017-11-08 22:00:00 10.9 13 Norte 32 Norte 0 -- -- 53
2017-11-08 21:00:00 11.6 9 Norte 27 Noroeste 0 -- -- 48
2017-11-08 20:00:00 12.1 11 Norte 23 Nordeste 0 -- -- 43
2017-11-08 19:00:00 12.3 9 Norte 20 Norte 0 -- -- 44
2017-11-08 18:00:00 11.7 3 Sudoeste 6 Este 0 -- -- 62
2017-11-08 17:00:00 13.8 3 Noroeste 10 Norte 0 -- -- 52
2017-11-08 16:00:00 14.4 5 Norte 15 Norte 0 -- -- 45
2017-11-08 15:00:00 14.8 8 Norte 15 Noroeste 0 -- -- 44
2017-11-08 14:00:00 14.8 6 Noroeste 15 Noroeste 0 -- -- 48
2017-11-08 13:00:00 14.4 2 Este 7 Oeste 0 -- -- 49
2017-11-08 12:00:00 12.9 5 Oeste 14 Oeste 0 -- -- 54
2017-11-08 11:00:00 11 9 Oeste 18 Oeste 0 -- -- 58
2017-11-08 10:00:00 7.8 11 Oeste 22 Oeste 0 -- -- 70
2017-11-08 09:00:00 6.3 10 Oeste 23 Oeste 0 -- -- 76
2017-11-08 08:00:00 4.6 7 Oeste 14 Sudoeste 0 -- -- 81
2017-11-08 07:00:00 4.3 6 Sudoeste 15 Oeste 0 -- -- 82
2017-11-08 06:00:00 4 8 Oeste 17 Oeste 0 -- -- 82
2017-11-08 05:00:00 3.5 8 Oeste 16 Oeste 0 -- -- 84
2017-11-08 04:00:00 3.2 8 Oeste 15 Oeste 0 -- -- 84
2017-11-08 03:00:00 3.3 7 Oeste 15 Oeste 0 -- -- 83
2017-11-08 02:00:00 3.6 8 Oeste 15 Oeste 0 -- -- 83
2017-11-08 01:00:00 3.8 8 Oeste 13 Oeste 0 -- -- 84
2017-11-08 00:00:00 4.3 7 Oeste 15 Oeste 0 -- -- 82
2017-11-07 23:00:00 5.2 7 Oeste 18 Oeste 0 -- -- 82
2017-11-07 22:00:00 5.6 7 Sudoeste 15 Oeste 0 -- -- 82
2017-11-07 21:00:00 5.5 6 Oeste 14 Sudoeste 0 -- -- 84
2017-11-07 20:00:00 6.9 6 Oeste 13 Oeste 0 -- -- 78
2017-11-07 19:00:00 8 4 Oeste 9 Oeste 0 -- -- 75
2017-11-07 18:00:00 10.1 4 Sudoeste 6 Oeste 0 -- -- 66
2017-11-07 17:00:00 13 2 Sudeste 12 Este 0 -- -- 55
2017-11-07 16:00:00 14.4 4 Este 14 Sur 0 -- -- 46
2017-11-07 15:00:00 15.7 5 Sur 25 Sur 0 -- -- 41
2017-11-07 14:00:00 15.8 12 Sur 27 Sur 0 -- -- 36
2017-11-07 13:00:00 15.6 5 Sudeste 14 Sudeste 0 -- -- 29
2017-11-07 12:00:00 15.6 5 Sur 12 Sudeste 0 -- -- 26
2017-11-07 11:00:00 13.1 2 Oeste 10 Oeste 0 -- -- 36
2017-11-07 10:00:00 10 3 Oeste 22 Oeste 0 -- -- 49
2017-11-07 09:00:00 5.7 11 Oeste 24 Sudoeste 0 -- -- 56
2017-11-07 08:00:00 3.7 9 Oeste 19 Oeste 0 -- -- 64
2017-11-07 07:00:00 5.6 6 Sudoeste 13 Oeste 0 -- -- 59
2017-11-07 06:00:00 8.3 6 Noroeste 32 Noroeste 0 -- -- 48
2017-11-07 05:00:00 9.8 14 Norte 43 Norte 0 -- -- 42
2017-11-07 04:00:00 9.9 21 Norte 54 Noroeste 0 -- -- 42
2017-11-07 03:00:00 10 25 Norte 50 Norte 0 -- -- 41
2017-11-07 02:00:00 10.1 22 Norte 42 Norte 0 -- -- 40
2017-11-07 01:00:00 10.1 15 Norte 33 Norte 0 -- -- 40
2017-11-07 00:00:00 9.7 13 Noroeste 28 Norte 0 -- -- 37
2017-11-06 23:00:00 8.6 6 Oeste 25 Nordeste 0 -- -- 43
2017-11-06 22:00:00 10.4 4 Nordeste 22 Noroeste 0 -- -- 35
2017-11-06 21:00:00 12.3 11 Norte 35 Norte 0 -- -- 29
2017-11-06 20:00:00 12.5 7 Nordeste 35 Nordeste 0 -- -- 27
2017-11-06 19:00:00 12.8 9 Norte 29 Norte 0 -- -- 27
2017-11-06 18:00:00 12.9 8 Noroeste 31 Nordeste 0 -- -- 27
2017-11-06 17:00:00 14.3 13 Norte 25 Noroeste 0 -- -- 24
2017-11-06 16:00:00 15 12 Norte 43 Norte 0 -- -- 23
2017-11-06 15:00:00 15.8 17 Norte 44 Noroeste 0 -- -- 19
2017-11-06 14:00:00 15.7 20 Noroeste 42 Norte 0 -- -- 22
2017-11-06 13:00:00 15.5 23 Noroeste 53 Noroeste 0 -- -- 25
2017-11-06 12:00:00 15 23 Noroeste 57 Noroeste 0 -- -- 32
2017-11-06 11:00:00 14.3 20 Noroeste 48 Noroeste 0 -- -- 37
2017-11-06 10:00:00 12.9 25 Noroeste 51 Noroeste 0 -- -- 40
2017-11-06 09:00:00 11.4 24 Noroeste 38 Noroeste 0 -- -- 42
2017-11-06 08:00:00 5 10 Oeste 23 Noroeste 0 -- -- 68
2017-11-06 07:00:00 4.2 5 Oeste 13 Sudoeste 0 -- -- 78
2017-11-06 06:00:00 5.4 5 Oeste 12 Oeste 0 -- -- 72
2017-11-06 05:00:00 7.6 7 Oeste 15 Oeste 0 -- -- 62
2017-11-06 04:00:00 10.4 10 Norte 32 Norte 0 -- -- 46
2017-11-06 03:00:00 10.4 15 Norte 33 Norte 0 -- -- 49
2017-11-06 02:00:00 10.5 15 Norte 39 Noroeste 0 -- -- 50
2017-11-06 01:00:00 10.6 16 Nordeste 42 Norte 0 -- -- 53
2017-11-06 00:00:00 11.3 21 Norte 42 Norte 0 -- -- 47
2017-11-05 23:00:00 11.9 19 Norte 43 Norte 0 -- -- 48
2017-11-05 22:00:00 12.5 19 Norte 49 Norte 0 -- -- 51
2017-11-05 21:00:00 12.5 21 Norte 47 Noroeste 0 -- -- 54
2017-11-05 20:00:00 12.7 21 Norte 45 Norte 0 -- -- 56
2017-11-05 19:00:00 13.6 17 Norte 38 Norte 0 -- -- 55
2017-11-05 18:00:00 14.1 17 Norte 38 Norte 0 -- -- 54
2017-11-05 17:00:00 14.8 14 Norte 33 Norte 0 -- -- 50
2017-11-05 16:00:00 16 12 Norte 29 Norte 0 -- -- 47
2017-11-05 15:00:00 16.9 11 Norte 31 Norte 0 -- -- 45
2017-11-05 14:00:00 16.6 13 Norte 33 Norte 0 -- -- 45
2017-11-05 13:00:00 16.4 13 Norte 35 Nordeste 0 -- -- 49
2017-11-05 12:00:00 15.9 10 Norte 31 Norte 0 -- -- 54
2017-11-05 11:00:00 14.9 14 Norte 33 Norte 0 -- -- 68
2017-11-05 10:00:00 14.3 3 Oeste 8 Oeste 0 -- -- 96
2017-11-05 09:00:00 13.6 4 Sur 12 Oeste 0 -- -- 97
2017-11-05 08:00:00 13.1 6 Oeste 14 Oeste 0 -- -- 97
2017-11-05 07:00:00 13.3 5 Oeste 13 Oeste 0 -- -- 96
2017-11-05 06:00:00 13.7 6 Oeste 12 Oeste 0.2 -- -- 95
2017-11-05 05:00:00 14 4 Oeste 9 Nordeste 0.6 -- -- 94
2017-11-05 04:00:00 14.1 0 Calma 9 Este 1 -- -- 95
2017-11-05 03:00:00 14.4 5 Nordeste 14 Nordeste 2 -- -- 93
2017-11-05 02:00:00 14.1 4 Oeste 11 Oeste 0.2 -- -- 97
2017-11-05 01:00:00 14.2 4 Oeste 10 Oeste 0.2 -- -- 96
2017-11-05 00:00:00 14.5 4 Oeste 16 Noroeste 0 -- -- 95
2017-11-04 23:00:00 14.9 9 Oeste 18 Oeste 0 -- -- 93
2017-11-04 22:00:00 15.4 5 Oeste 37 Sudoeste 13.2 -- -- 95
2017-11-04 21:00:00 16.7 5 Sudoeste 10 Sudoeste 3.2 -- -- 97
2017-11-04 20:00:00 16.8 6 Noroeste 14 Noroeste 0.2 -- -- 97
2017-11-04 19:00:00 17.1 3 Oeste 6 Sudoeste 0 -- -- 96
2017-11-04 18:00:00 17.7 2 Sur 10 Sudeste 0 -- -- 93
2017-11-04 17:00:00 19.1 4 Sudeste 12 Este 0 -- -- 93
2017-11-04 16:00:00 19.3 7 Este 18 Este 0 -- -- 94
2017-11-04 15:00:00 18.9 10 Nordeste 17 Nordeste 0 -- -- 94
2017-11-04 14:00:00 18 3 Este 25 Noroeste 14.2 -- -- 96
2017-11-04 13:00:00 17.4 9 Oeste 23 Oeste 14.2 -- -- 95
2017-11-04 12:00:00 16.7 8 Oeste 13 Oeste 19.4 -- -- 95
2017-11-04 11:00:00 16.5 3 Oeste 9 Oeste 0 -- -- 93
2017-11-04 10:00:00 15.1 5 Sudoeste 18 Oeste 0.4 -- -- 94
2017-11-04 09:00:00 14.9 6 Oeste 13 Oeste 0 -- -- 93
2017-11-04 08:00:00 14.7 5 Oeste 13 Oeste 0 -- -- 94
2017-11-04 07:00:00 14 5 Oeste 15 Oeste 0 -- -- 94
2017-11-04 06:00:00 14.2 6 Sudoeste 13 Oeste 0 -- -- 95
2017-11-04 05:00:00 13.9 5 Oeste 9 Oeste 0 -- -- 95
2017-11-04 04:00:00 14.4 3 Noroeste 10 Oeste 0 -- -- 93
2017-11-04 03:00:00 14.6 4 Oeste 8 Oeste 0 -- -- 93
2017-11-04 02:00:00 14.6 4 Oeste 8 Oeste 0 -- -- 93
2017-11-04 01:00:00 14.5 4 Oeste 8 Oeste 0 -- -- 93
2017-11-04 00:00:00 14.4 3 Oeste 9 Oeste 0 -- -- 92
2017-11-03 23:00:00 15.3 0 Calma 7 Oeste 0 -- -- 90
2017-11-03 22:00:00 16.4 3 Sudoeste 10 Oeste 0 -- -- 86
2017-11-03 21:00:00 18.4 8 Noroeste 21 Sudoeste 0 -- -- 82
2017-11-03 20:00:00 18.3 7 Sudoeste 19 Sudoeste 0 -- -- 82
2017-11-03 19:00:00 18.9 7 Oeste 20 Oeste 0 -- -- 80
2017-11-03 18:00:00 19.5 8 Sudoeste 30 Sudoeste 0 -- -- 78
2017-11-03 17:00:00 20 10 Sudoeste 24 Sudoeste 0 -- -- 76
2017-11-03 16:00:00 20.8 8 Sudoeste 24 Sudoeste 0 -- -- 73
2017-11-03 15:00:00 21.5 11 Sur 27 Sur 0 -- -- 71
2017-11-03 14:00:00 20.9 10 Sur 22 Sur 0 -- -- 73
2017-11-03 13:00:00 20.2 10 Sur 23 Sudeste 0 -- -- 77
2017-11-03 12:00:00 18.7 4 Sur 13 Oeste 0 -- -- 81
2017-11-03 11:00:00 15.6 5 Oeste 18 Oeste 0 -- -- 92
2017-11-03 10:00:00 14.1 8 Oeste 20 Oeste 0 -- -- 98
2017-11-03 09:00:00 12.7 7 Oeste 17 Oeste 0 -- -- 99
2017-11-03 08:00:00 11.8 5 Oeste 13 Oeste 0 -- -- 99
2017-11-03 07:00:00 11.5 6 Oeste 19 Oeste 0 -- -- 98
2017-11-03 06:00:00 11.5 7 Oeste 14 Oeste 0 -- -- 98
2017-11-03 05:00:00 10.9 6 Oeste 12 Oeste 0 -- -- 96
2017-11-03 04:00:00 11.2 5 Oeste 13 Oeste 0 -- -- 94
2017-11-03 03:00:00 11.6 5 Oeste 10 Oeste 0 -- -- 94
2017-11-03 02:00:00 12 5 Oeste 9 Oeste 0 -- -- 94
2017-11-03 01:00:00 12.7 5 Oeste 9 Oeste 0 -- -- 94
2017-11-03 00:00:00 13.3 5 Oeste 8 Oeste 0 -- -- 92
2017-11-02 23:00:00 14 0 Calma 5 Sudeste 0 -- -- 91
2017-11-02 22:00:00 14.9 0 Calma 5 Sur 0 -- -- 90
2017-11-02 21:00:00 15.9 0 Calma 5 Sur 0 -- -- 88
2017-11-02 20:00:00 17.6 0 Calma 12 Oeste 0 -- -- 82
2017-11-02 19:00:00 19.2 5 Noroeste 19 Oeste 0 -- -- 78
2017-11-02 18:00:00 19.5 8 Sudoeste 35 Sudoeste 0 -- -- 75
2017-11-02 17:00:00 20.3 12 Sudoeste 28 Sudoeste 0 -- -- 71
2017-11-02 16:00:00 20.9 12 Sudoeste 33 Sudoeste 0 -- -- 70
2017-11-02 15:00:00 22.3 13 Sudoeste 31 Sudoeste 0 -- -- 66
2017-11-02 14:00:00 22.4 13 Sudoeste 35 Sur 0 -- -- 66
2017-11-02 13:00:00 22.7 14 Sur 27 Sudoeste 0 -- -- 64
2017-11-02 12:00:00 22.8 10 Sudoeste 27 Sur 0 -- -- 61
2017-11-02 11:00:00 21.3 5 Oeste 21 Sur 0 -- -- 67
2017-11-02 10:00:00 19.3 9 Sur 21 Sudoeste 0 -- -- 75
2017-11-02 09:00:00 15.4 0 Calma 8 Oeste 0 -- -- 95
2017-11-02 08:00:00 12.5 4 Sudoeste 8 Sudoeste 0 -- -- 97
2017-11-02 07:00:00 12 4 Oeste 9 Noroeste 0 -- -- 97
2017-11-02 06:00:00 11.5 5 Oeste 10 Oeste 0 -- -- 96
2017-11-02 05:00:00 10.8 4 Oeste 9 Oeste 0 -- -- 95
2017-11-02 04:00:00 10.9 5 Oeste 9 Oeste 0 -- -- 95
2017-11-02 03:00:00 10.5 5 Oeste 9 Oeste 0 -- -- 95
2017-11-02 02:00:00 10.6 4 Oeste 9 Oeste 0 -- -- 94
2017-11-02 01:00:00 11.2 5 Oeste 11 Oeste 0 -- -- 93
2017-11-02 00:00:00 11.8 5 Oeste 12 Oeste 0 -- -- 93
2017-11-01 23:00:00 12 6 Oeste 12 Oeste 0 -- -- 93
2017-11-01 22:00:00 12.8 6 Oeste 12 Oeste 0 -- -- 92
2017-11-01 21:00:00 13.2 6 Oeste 12 Oeste 0 -- -- 89
2017-11-01 20:00:00 13.8 5 Oeste 8 Oeste 0 -- -- 87
2017-11-01 19:00:00 15.2 4 Oeste 7 Oeste 0 -- -- 82
2017-11-01 18:00:00 17.2 0 Calma 12 Sur 0 -- -- 76
2017-11-01 17:00:00 18.2 7 Sur 16 Sudeste 0 -- -- 72
2017-11-01 16:00:00 18.7 10 Sur 20 Sur 0 -- -- 68
2017-11-01 15:00:00 19.4 13 Sur 22 Sur 0 -- -- 63
2017-11-01 14:00:00 19.7 10 Sudeste 18 Sur 0 -- -- 60
2017-11-01 13:00:00 19.8 9 Sur 18 Sur 0 -- -- 61
2017-11-01 12:00:00 19.1 8 Sudeste 15 Sudeste 0 -- -- 63
2017-11-01 11:00:00 16.4 3 Noroeste 14 Oeste 0 -- -- 72
2017-11-01 10:00:00 13.3 6 Oeste 14 Oeste 0 -- -- 77
2017-11-01 09:00:00 8.9 6 Oeste 15 Oeste 0 -- -- 88
2017-11-01 08:00:00 6.8 8 Oeste 15 Oeste 0 -- -- 92
2017-11-01 07:00:00 6.8 6 Oeste 15 Oeste 0 -- -- 92
2017-11-01 06:00:00 6.9 7 Oeste 14 Oeste 0 -- -- 91
2017-11-01 05:00:00 7.3 7 Oeste 14 Oeste 0 -- -- 90
2017-11-01 04:00:00 7.3 6 Oeste 13 Oeste 0 -- -- 90
2017-11-01 03:00:00 7.7 6 Oeste 15 Sudoeste 0 -- -- 89
2017-11-01 02:00:00 8.3 7 Oeste 13 Oeste 0 -- -- 88
2017-11-01 01:00:00 8.4 6 Sudoeste 12 Oeste 0 -- -- 87
2017-11-01 00:00:00 8.9 6 Oeste 12 Sudoeste 0 -- -- 86
2017-10-31 23:00:00 9.3 6 Oeste 12 Oeste 0 -- -- 85
2017-10-31 22:00:00 9.8 5 Oeste 13 Sudoeste 0 -- -- 83
2017-10-31 21:00:00 10.5 6 Oeste 12 Oeste 0 -- -- 79
2017-10-31 20:00:00 11.4 4 Oeste 8 Oeste 0 -- -- 76
2017-10-31 19:00:00 13.5 3 Oeste 6 Este 0 -- -- 68
2017-10-31 18:00:00 15.3 3 Este 17 Este 0 -- -- 60
2017-10-31 17:00:00 16.9 8 Este 16 Nordeste 0 -- -- 53
2017-10-31 16:00:00 17.7 10 Este 24 Este 0 -- -- 48
2017-10-31 15:00:00 18.5 11 Este 22 Este 0 -- -- 46
2017-10-31 14:00:00 19.1 10 Este 18 Este 0 -- -- 44
2017-10-31 13:00:00 18.9 8 Nordeste 17 Este 0 -- -- 39
2017-10-31 12:00:00 18 8 Nordeste 15 Nordeste 0 -- -- 42
2017-10-31 11:00:00 16.7 9 Nordeste 22 Nordeste 0 -- -- 43
2017-10-31 10:00:00 15.4 6 Noroeste 17 Noroeste 0 -- -- 50
2017-10-31 09:00:00 12 5 Sudoeste 11 Oeste 0 -- -- 69
2017-10-31 08:00:00 8.8 5 Oeste 10 Sudoeste 0 -- -- 82
2017-10-31 07:00:00 8.9 6 Oeste 10 Oeste 0 -- -- 80
2017-10-31 06:00:00 9.7 6 Oeste 16 Norte 0 -- -- 77
2017-10-31 05:00:00 12.1 5 Norte 17 Noroeste 0 -- -- 64
2017-10-31 04:00:00 11.7 3 Oeste 15 Oeste 0 -- -- 69
2017-10-31 03:00:00 13.5 3 Norte 18 Norte 0 -- -- 61
2017-10-31 02:00:00 13.9 6 Norte 24 Norte 0 -- -- 59
2017-10-31 01:00:00 14 6 Norte 30 Norte 0 -- -- 61
2017-10-31 00:00:00 14.3 13 Norte 33 Norte 0 -- -- 59
2017-10-30 23:00:00 14.8 14 Norte 37 Norte 0 -- -- 59
2017-10-30 22:00:00 15 17 Norte 37 Norte 0 -- -- 61
2017-10-30 21:00:00 15 14 Norte 33 Norte 0 -- -- 64
2017-10-30 20:00:00 15.4 17 Norte 34 Norte 0 -- -- 63
2017-10-30 19:00:00 16 13 Norte 37 Norte 0 -- -- 60
2017-10-30 18:00:00 17.1 11 Norte 23 Norte 0 -- -- 57
2017-10-30 17:00:00 18.5 5 Nordeste 13 Nordeste 0 -- -- 61
2017-10-30 16:00:00 19.6 6 Sudeste 14 Sudeste 0 -- -- 61
2017-10-30 15:00:00 19.6 5 Sur 15 Sudeste 0 -- -- 59
2017-10-30 14:00:00 21.3 4 Sur 12 Sur 0 -- -- 53
2017-10-30 13:00:00 20.6 2 Oeste 8 Oeste 0 -- -- 54
2017-10-30 12:00:00 18.7 4 Oeste 15 Noroeste 0 -- -- 61
2017-10-30 11:00:00 16.4 8 Oeste 18 Oeste 0 -- -- 68
2017-10-30 10:00:00 14.5 9 Oeste 22 Oeste 0 -- -- 71
2017-10-30 09:00:00 12.4 12 Oeste 23 Oeste 0 -- -- 75
2017-10-30 08:00:00 11.8 6 Oeste 15 Sudoeste 0 -- -- 80
2017-10-30 07:00:00 9.9 4 Oeste 13 Oeste 0 -- -- 85
2017-10-30 06:00:00 9.4 6 Oeste 15 Oeste 0 -- -- 85
2017-10-30 05:00:00 9.6 7 Oeste 23 Oeste 0 -- -- 84
2017-10-30 04:00:00 9.7 6 Oeste 14 Sudoeste 0 -- -- 83
2017-10-30 03:00:00 10.1 6 Oeste 17 Sudoeste 0 -- -- 82
2017-10-30 02:00:00 10 5 Sudoeste 17 Oeste 0 -- -- 82
2017-10-30 01:00:00 9.7 7 Oeste 15 Sudoeste 0 -- -- 84
2017-10-30 00:00:00 10.1 6 Oeste 13 Oeste 0 -- -- 83
2017-10-29 23:00:00 10.6 6 Oeste 13 Oeste 0 -- -- 83
2017-10-29 22:00:00 11.7 6 Oeste 10 Oeste 0 -- -- 85
2017-10-29 21:00:00 13.2 4 Oeste 22 Oeste 0 -- -- 87
2017-10-29 20:00:00 16.1 9 Noroeste 20 Noroeste 0 -- -- 69
2017-10-29 19:00:00 15.1 4 Oeste 7 Oeste 0 -- -- 81
2017-10-29 18:00:00 17.1 2 Sudeste 4 Este 0 -- -- 76
2017-10-29 17:00:00 19.1 4 Sudeste 13 Sudeste 0 -- -- 66
2017-10-29 16:00:00 19.7 5 Sudeste 13 Este 0 -- -- 61
2017-10-29 15:00:00 20 7 Este 15 Este 0 -- -- 60
2017-10-29 14:00:00 20.2 7 Este 17 Este 0 -- -- 61
2017-10-29 13:00:00 20.6 9 Este 18 Este 0 -- -- 60
2017-10-29 12:00:00 20.6 8 Este 13 Oeste 0 -- -- 59
2017-10-29 11:00:00 19 7 Oeste 21 Oeste 0 -- -- 63
2017-10-29 10:00:00 16.1 12 Oeste 23 Oeste 0 -- -- 72
2017-10-29 09:00:00 11.8 5 Oeste 12 Sudoeste 0 -- -- 91
2017-10-29 08:00:00 8.9 5 Oeste 13 Sudoeste 0 -- -- 94
2017-10-29 07:00:00 8.3 6 Oeste 14 Oeste 0 -- -- 94
2017-10-29 06:00:00 9 6 Oeste 17 Oeste 0 -- -- 92
2017-10-29 05:00:00 9.6 9 Oeste 16 Oeste 0 -- -- 90
2017-10-29 04:00:00 9.8 6 Oeste 15 Oeste 0 -- -- 91
2017-10-29 03:00:00 10.5 7 Oeste 15 Sudoeste 0 -- -- 89
2017-10-29 02:00:00 11 6 Oeste 13 Oeste 0 -- -- 90
2017-10-29 01:00:00 12.2 6 Sudoeste 14 Sudoeste 0 -- -- 91
2017-10-29 00:00:00 12.6 6 Oeste 12 Oeste 0 -- -- 90
2017-10-28 23:00:00 13.6 5 Oeste 10 Oeste 0 -- -- 91
2017-10-28 22:00:00 14.4 4 Oeste 8 Oeste 0 -- -- 90
2017-10-28 21:00:00 15.7 0 Calma 7 Oeste 0 -- -- 88
2017-10-28 20:00:00 17.2 2 Sur 5 Oeste 0 -- -- 83
2017-10-28 19:00:00 19.1 3 Oeste 12 Sur 0 -- -- 77
2017-10-28 18:00:00 20.3 5 Sudoeste 17 Sur 0 -- -- 73
2017-10-28 17:00:00 20.7 9 Sur 16 Sur 0 -- -- 66
2017-10-28 16:00:00 21.3 5 Este 16 Este 0 -- -- 62
2017-10-28 15:00:00 21.8 9 Este 17 Sudeste 0 -- -- 58
2017-10-28 14:00:00 22 8 Este 18 Este 0 -- -- 57
2017-10-28 13:00:00 22.7 6 Este 14 Sudoeste 0 -- -- 51
2017-10-28 12:00:00 21.2 3 Oeste 11 Sudoeste 0 -- -- 55
2017-10-28 11:00:00 18.8 4 Oeste 18 Noroeste 0 -- -- 63
2017-10-28 10:00:00 15.2 4 Oeste 14 Oeste 0 -- -- 75
2017-10-28 09:00:00 12.2 7 Oeste 18 Oeste 0 -- -- 83
2017-10-28 08:00:00 11.6 6 Oeste 17 Sudoeste 0 -- -- 87
2017-10-28 07:00:00 12.3 5 Oeste 16 Oeste 0 -- -- 84
2017-10-28 06:00:00 13.2 5 Oeste 14 Oeste 0 -- -- 79
2017-10-28 05:00:00 16.5 8 Noroeste 21 Noroeste 0 -- -- 67
2017-10-28 04:00:00 17.9 12 Noroeste 45 Nordeste 0 -- -- 61
2017-10-28 03:00:00 18.4 15 Norte 40 Noroeste 0 -- -- 60
2017-10-28 02:00:00 17 11 Norte 25 Nordeste 0 -- -- 65
2017-10-28 01:00:00 16.3 5 Oeste 17 Oeste 0 -- -- 69
2017-10-28 00:00:00 18.6 10 Oeste 32 Noroeste 0 -- -- 60
2017-10-27 23:00:00 19.1 21 Noroeste 37 Norte 0 -- -- 59
2017-10-27 22:00:00 19.6 20 Norte 42 Norte 0 -- -- 57
2017-10-27 21:00:00 20.4 20 Norte 49 Norte 0 -- -- 51
2017-10-27 20:00:00 20.6 20 Norte 45 Norte 0 -- -- 49
2017-10-27 19:00:00 21 20 Norte 44 Nordeste 0 -- -- 51
2017-10-27 18:00:00 22.3 18 Norte 49 Norte 0 -- -- 49
2017-10-27 17:00:00 22.6 16 Norte 35 Nordeste 0 -- -- 51
2017-10-27 16:00:00 22.7 5 Sudeste 15 Sudeste 0 -- -- 61
2017-10-27 15:00:00 22.3 6 Este 13 Sudeste 0 -- -- 66
2017-10-27 14:00:00 22.3 6 Este 12 Este 0 -- -- 73
2017-10-27 13:00:00 20.9 4 Nordeste 11 Este 0 -- -- 85
2017-10-27 12:00:00 19.7 3 Nordeste 6 Este 0 -- -- 89
2017-10-27 11:00:00 18 4 Este 10 Oeste 0 -- -- 87
2017-10-27 10:00:00 14.2 6 Oeste 12 Oeste 0 -- -- 96
2017-10-27 09:00:00 12.3 5 Oeste 15 Oeste 0 -- -- 97
2017-10-27 08:00:00 12.4 7 Oeste 16 Noroeste 0 -- -- 97
2017-10-27 07:00:00 13 8 Oeste 13 Oeste 0 -- -- 97
2017-10-27 06:00:00 13.5 6 Oeste 16 Oeste 0 -- -- 98
2017-10-27 05:00:00 14.4 8 Oeste 20 Oeste 0 -- -- 98
2017-10-27 04:00:00 15.3 9 Oeste 20 Oeste 0 -- -- 98
2017-10-27 03:00:00 15.8 10 Oeste 21 Oeste 0 -- -- 98
2017-10-27 02:00:00 15.5 9 Oeste 21 Oeste 0 -- -- 99
2017-10-27 01:00:00 13.8 7 Oeste 15 Sudoeste 0 -- -- 97
2017-10-27 00:00:00 14.2 5 Oeste 12 Oeste 0 -- -- 97
2017-10-26 23:00:00 15.1 5 Oeste 9 Oeste 0 -- -- 97
2017-10-26 22:00:00 15.7 4 Oeste 9 Oeste 0 -- -- 96
2017-10-26 21:00:00 16.1 4 Oeste 7 Oeste 0 -- -- 90
2017-10-26 20:00:00 17.6 0 Calma 8 Nordeste 0 -- -- 89
2017-10-26 19:00:00 17.9 4 Este 10 Este 0 -- -- 89
2017-10-26 18:00:00 18.3 4 Este 12 Este 0 -- -- 87
2017-10-26 17:00:00 18.8 6 Este 15 Este 0 -- -- 84
2017-10-26 16:00:00 19.3 8 Este 16 Este 0 -- -- 82
2017-10-26 15:00:00 19.9 9 Este 15 Este 0 -- -- 79
2017-10-26 14:00:00 19.9 8 Este 14 Este 0 -- -- 79
2017-10-26 13:00:00 19.9 7 Este 15 Este 0 -- -- 80
2017-10-26 12:00:00 20 6 Este 10 Oeste 0 -- -- 78
2017-10-26 11:00:00 16.9 7 Oeste 13 Oeste 0 -- -- 90
2017-10-26 10:00:00 14.5 5 Oeste 12 Oeste 0 -- -- 95
2017-10-26 09:00:00 13.2 5 Oeste 12 Oeste 0 -- -- 94
2017-10-26 08:00:00 13 5 Oeste 12 Sudoeste 0 -- -- 94
2017-10-26 07:00:00 13.4 4 Oeste 9 Oeste 0 -- -- 94
2017-10-26 06:00:00 13.3 4 Oeste 9 Oeste 0 -- -- 94
2017-10-26 05:00:00 13.4 5 Oeste 10 Oeste 0 -- -- 94
2017-10-26 04:00:00 13.6 5 Oeste 9 Oeste 0 -- -- 94
2017-10-26 03:00:00 13.1 4 Oeste 9 Sudoeste 0 -- -- 94
2017-10-26 02:00:00 13 4 Sudoeste 12 Sudoeste 0 -- -- 94
2017-10-26 01:00:00 13.2 5 Oeste 10 Oeste 0 -- -- 94
2017-10-26 00:00:00 13.1 5 Oeste 11 Oeste 0 -- -- 93
2017-10-25 23:00:00 13.4 5 Oeste 11 Oeste 0 -- -- 91
2017-10-25 22:00:00 13.9 5 Oeste 9 Oeste 0 -- -- 90
2017-10-25 21:00:00 14.6 4 Oeste 7 Oeste 0 -- -- 88
2017-10-25 20:00:00 15.9 0 Calma 5 Sur 0 -- -- 87
2017-10-25 19:00:00 17.6 2 Sudeste 5 Este 0 -- -- 80
2017-10-25 18:00:00 19 4 Este 10 Este 0 -- -- 77
2017-10-25 17:00:00 19.7 6 Sudeste 13 Este 0 -- -- 72
2017-10-25 16:00:00 20.2 9 Este 15 Este 0 -- -- 66
2017-10-25 15:00:00 21.5 8 Sudeste 18 Sur 0 -- -- 59
2017-10-25 14:00:00 22.1 7 Sudeste 15 Sur 0 -- -- 56
2017-10-25 13:00:00 22.3 8 Este 13 Sudeste 0 -- -- 55
2017-10-25 12:00:00 20.7 8 Oeste 19 Oeste 0 -- -- 60
2017-10-25 11:00:00 17.9 11 Oeste 18 Oeste 0 -- -- 72
2017-10-25 10:00:00 14.1 6 Oeste 15 Oeste 0 -- -- 87
2017-10-25 09:00:00 11.5 6 Oeste 15 Oeste 0 -- -- 92
2017-10-25 08:00:00 11.1 7 Sudoeste 15 Oeste 0 -- -- 93
2017-10-25 07:00:00 11.4 6 Oeste 14 Oeste 0 -- -- 92
2017-10-25 06:00:00 11.8 7 Oeste 14 Oeste 0 -- -- 92
2017-10-25 05:00:00 12.1 6 Oeste 15 Oeste 0 -- -- 92
2017-10-25 04:00:00 11.9 6 Oeste 15 Oeste 0 -- -- 91
2017-10-25 03:00:00 12.1 7 Oeste 13 Sur 0 -- -- 90
2017-10-25 02:00:00 12 7 Sudoeste 15 Oeste 0 -- -- 88
2017-10-25 01:00:00 12.5 7 Sudoeste 14 Oeste 0 -- -- 87
2017-10-25 00:00:00 12.6 6 Oeste 13 Noroeste 0 -- -- 84